createdAt,value
2019-01-24T00:00:31.040Z,33.25
2019-01-24T00:02:59.539Z,32.05
2019-01-24T00:05:27.997Z,28.83
2019-01-24T00:07:56.508Z,34.80
2019-01-24T00:10:24.967Z,21.68
2019-01-24T00:12:53.393Z,27.58
2019-01-24T00:15:21.997Z,36.25
2019-01-24T00:17:50.429Z,39.63
2019-01-24T00:20:18.951Z,43.28
2019-01-24T00:22:47.390Z,35.03
2019-01-24T00:25:15.851Z,25.57
2019-01-24T00:27:44.289Z,29.42
2019-01-24T00:30:14.692Z,23.87
2019-01-24T00:32:43.241Z,31.35
2019-01-24T00:35:11.799Z,27.13
2019-01-24T00:37:40.299Z,25.23
2019-01-24T00:40:17.754Z,34.43
2019-01-24T00:42:46.257Z,31.57
2019-01-24T00:45:14.958Z,21.82
2019-01-24T00:47:43.660Z,35.60
2019-01-24T00:50:14.063Z,37.05
2019-01-24T00:52:42.502Z,29.63
2019-01-24T00:55:13.110Z,25.62
2019-01-24T00:57:41.675Z,34.85
2019-01-24T01:00:16.294Z,32.67
2019-01-24T01:02:44.725Z,32.70
2019-01-24T01:05:13.558Z,26.30
2019-01-24T01:07:42.041Z,23.35
2019-01-24T01:10:11.738Z,32.33
2019-01-24T01:12:40.241Z,38.53
2019-01-24T01:15:19.716Z,31.93
2019-01-24T01:17:48.315Z,36.10
2019-01-24T01:20:19.258Z,30.48
2019-01-24T01:22:47.840Z,23.18
2019-01-24T01:25:16.346Z,25.20
2019-01-24T01:27:45.345Z,26.97
2019-01-24T01:30:17.209Z,36.15
2019-01-24T01:32:45.701Z,25.25
2019-01-24T01:35:14.400Z,35.70
2019-01-24T01:37:43.002Z,33.00
2019-01-24T01:40:14.344Z,30.52
2019-01-24T01:42:42.873Z,25.20
2019-01-24T01:45:14.049Z,28.23
2019-01-24T01:47:42.580Z,32.73
2019-01-24T01:50:14.252Z,34.05
2019-01-24T01:52:42.709Z,30.17
2019-01-24T01:55:11.478Z,29.27
2019-01-24T01:57:39.939Z,25.10
2019-01-24T02:00:11.548Z,24.92
2019-01-24T02:02:40.012Z,29.00
2019-01-24T02:05:10.369Z,33.38
2019-01-24T02:07:38.885Z,34.25
2019-01-24T02:10:10.516Z,33.98
2019-01-24T02:12:38.962Z,37.00
2019-01-24T02:15:09.737Z,35.85
2019-01-24T02:17:38.168Z,39.83
2019-01-24T02:20:09.763Z,36.53
2019-01-24T02:22:38.211Z,36.10
2019-01-24T02:25:09.080Z,36.95
2019-01-24T02:27:37.592Z,34.35
2019-01-24T02:30:15.052Z,32.08
2019-01-24T02:32:43.497Z,35.05
2019-01-24T02:35:11.916Z,32.95
2019-01-24T02:37:40.437Z,34.95
2019-01-24T02:40:10.091Z,33.18
2019-01-24T02:42:38.609Z,33.25
2019-01-24T02:45:10.339Z,32.83
2019-01-24T02:47:38.871Z,32.40
2019-01-24T02:50:13.243Z,42.62
2019-01-24T02:52:41.772Z,37.15
2019-01-24T02:55:12.544Z,39.63
2019-01-24T02:57:41.004Z,36.13
2019-01-24T03:00:17.521Z,39.18
2019-01-24T03:02:45.937Z,34.18
2019-01-24T03:05:17.475Z,33.35
2019-01-24T03:07:46.004Z,47.15
2019-01-24T03:10:15.182Z,40.20
2019-01-24T03:12:43.711Z,34.75
2019-01-24T03:15:14.699Z,36.75
2019-01-24T03:17:43.229Z,33.35
2019-01-24T03:20:13.199Z,37.53
2019-01-24T03:22:41.732Z,32.13
2019-01-24T03:25:12.200Z,37.95
2019-01-24T03:27:40.667Z,34.78
2019-01-24T03:30:17.964Z,35.38
2019-01-24T03:32:46.437Z,33.88
2019-01-24T03:35:17.557Z,30.08
2019-01-24T03:37:46.166Z,29.18
2019-01-24T03:40:15.233Z,33.65
2019-01-24T03:42:43.774Z,35.38
2019-01-24T03:45:14.811Z,33.50
2019-01-24T03:47:43.340Z,34.65
2019-01-24T03:50:17.313Z,36.90
2019-01-24T03:52:45.848Z,34.03
2019-01-24T03:55:16.019Z,35.03
2019-01-24T03:57:44.547Z,30.35
2019-01-24T04:00:18.422Z,39.00
2019-01-24T04:02:46.947Z,40.60
2019-01-24T04:05:15.525Z,33.73
2019-01-24T04:07:43.979Z,33.98
2019-01-24T04:10:17.258Z,32.88
2019-01-24T04:12:45.716Z,32.98
2019-01-24T04:15:16.859Z,36.33
2019-01-24T04:17:45.290Z,38.42
2019-01-24T04:20:13.897Z,31.02
2019-01-24T04:22:42.325Z,33.08
2019-01-24T04:25:11.023Z,39.13
2019-01-24T04:27:39.531Z,35.03
2019-01-24T04:30:13.555Z,38.40
2019-01-24T04:32:41.986Z,33.75
2019-01-24T04:35:11.485Z,35.20
2019-01-24T04:37:39.915Z,23.67
2019-01-24T04:40:11.581Z,35.78
2019-01-24T04:42:40.079Z,41.50
2019-01-24T04:45:10.787Z,32.00
2019-01-24T04:47:39.293Z,31.70
2019-01-24T04:50:10.995Z,36.25
2019-01-24T04:52:39.420Z,38.67
2019-01-24T04:55:10.624Z,32.48
2019-01-24T04:57:39.059Z,40.85
2019-01-24T05:00:13.339Z,33.78
2019-01-24T05:02:41.773Z,39.33
2019-01-24T05:05:10.400Z,40.08
2019-01-24T05:07:38.833Z,35.65
2019-01-24T05:10:08.341Z,38.83
2019-01-24T05:12:36.777Z,35.65
2019-01-24T05:15:06.415Z,35.55
2019-01-24T05:17:34.929Z,38.65
2019-01-24T05:20:04.347Z,36.25
2019-01-24T05:22:32.783Z,38.55
2019-01-24T05:25:01.258Z,37.55
2019-01-24T05:27:30.811Z,37.08
2019-01-24T05:29:59.425Z,42.10
2019-01-24T05:32:27.860Z,38.88
2019-01-24T05:34:56.318Z,43.25
2019-01-24T05:37:24.747Z,37.93
2019-01-24T05:39:53.208Z,34.08
2019-01-24T05:42:21.649Z,38.35
2019-01-24T05:44:50.177Z,34.92
2019-01-24T05:47:18.623Z,40.35
2019-01-24T05:49:47.088Z,34.30
2019-01-24T05:52:19.701Z,37.25
2019-01-24T05:54:45.719Z,36.53
2019-01-24T05:57:14.157Z,37.48
2019-01-24T05:59:42.623Z,35.30
2019-01-24T06:02:11.059Z,41.88
2019-01-24T06:04:39.517Z,43.80
2019-01-24T06:07:08.020Z,36.03
2019-01-24T06:09:36.488Z,36.15
2019-01-24T06:12:04.984Z,42.25
2019-01-24T06:14:33.428Z,40.12
2019-01-24T06:17:01.950Z,37.00
2019-01-24T06:19:30.379Z,44.77
2019-01-24T06:21:58.859Z,40.03
2019-01-24T06:24:27.298Z,41.20
2019-01-24T06:26:55.762Z,40.28
2019-01-24T06:29:24.195Z,34.60
2019-01-24T06:31:52.657Z,38.23
2019-01-24T06:34:21.091Z,38.75
2019-01-24T06:36:49.626Z,40.15
2019-01-24T06:39:18.069Z,42.35
2019-01-24T06:41:46.538Z,39.83
2019-01-24T06:44:14.968Z,41.35
2019-01-24T06:46:43.431Z,44.18
2019-01-24T06:49:11.865Z,38.90
2019-01-24T06:51:40.326Z,42.80
2019-01-24T06:54:08.758Z,40.80
2019-01-24T06:56:37.220Z,36.90
2019-01-24T06:59:05.651Z,42.73
2019-01-24T07:01:34.116Z,42.58
2019-01-24T07:04:02.548Z,42.67
2019-01-24T07:06:31.086Z,38.65
2019-01-24T07:08:59.519Z,34.38
2019-01-24T07:11:28.052Z,35.00
2019-01-24T07:13:56.486Z,37.08
2019-01-24T07:16:24.949Z,37.53
2019-01-24T07:18:53.852Z,34.83
2019-01-24T07:21:22.417Z,36.23
2019-01-24T07:23:50.854Z,39.30
2019-01-24T07:26:19.323Z,34.50
2019-01-24T07:28:47.765Z,36.40
2019-01-24T07:31:16.239Z,33.25
2019-01-24T07:33:44.673Z,31.45
2019-01-24T07:36:13.106Z,32.50
2019-01-24T07:38:41.561Z,31.48
2019-01-24T07:41:09.989Z,31.93
2019-01-24T07:43:38.471Z,40.43
2019-01-24T07:46:07.046Z,44.20
2019-01-24T07:48:35.508Z,37.85
2019-01-24T07:51:04.081Z,38.50
2019-01-24T07:53:32.541Z,32.90
2019-01-24T07:56:00.980Z,38.02
2019-01-24T07:58:29.449Z,38.90
2019-01-24T08:00:57.878Z,34.80
2019-01-24T08:03:26.340Z,38.48
2019-01-24T08:05:54.777Z,40.63
2019-01-24T08:08:23.235Z,40.25
2019-01-24T08:10:51.679Z,34.78
2019-01-24T08:13:20.206Z,35.55
2019-01-24T08:15:48.645Z,36.95
2019-01-24T08:18:17.140Z,34.33
2019-01-24T08:20:45.577Z,34.40
2019-01-24T08:23:14.058Z,35.45
2019-01-24T08:25:42.565Z,36.77
2019-01-24T08:28:10.967Z,32.50
2019-01-24T08:30:39.522Z,33.20
2019-01-24T08:33:08.020Z,30.65
2019-01-24T08:35:36.480Z,30.95
2019-01-24T08:38:05.587Z,29.18
2019-01-24T08:40:34.049Z,31.40
2019-01-24T08:43:02.631Z,34.05
2019-01-24T08:45:31.093Z,27.32
2019-01-24T08:47:59.534Z,30.37
2019-01-24T08:50:28.362Z,33.13
2019-01-24T08:52:56.870Z,31.77
2019-01-24T08:55:31.356Z,37.25
2019-01-24T08:57:59.860Z,32.60
2019-01-24T09:00:28.390Z,31.60
2019-01-24T09:02:57.165Z,34.18
2019-01-24T09:05:25.697Z,35.58
2019-01-24T09:07:54.200Z,32.45
2019-01-24T09:10:34.340Z,30.15
2019-01-24T09:13:02.831Z,32.80
2019-01-24T09:15:31.365Z,36.17
2019-01-24T09:17:59.866Z,37.17
2019-01-24T09:20:28.354Z,30.52
2019-01-24T09:22:56.837Z,30.05
2019-01-24T09:25:25.352Z,32.90
2019-01-24T09:27:53.812Z,38.30
2019-01-24T09:30:29.860Z,37.50
2019-01-24T09:32:58.297Z,33.57
2019-01-24T09:35:26.740Z,41.98
2019-01-24T09:37:55.333Z,34.20
2019-01-24T09:40:24.308Z,35.52
2019-01-24T09:42:52.915Z,35.90
2019-01-24T09:45:23.275Z,32.27
2019-01-24T09:47:52.453Z,34.45
2019-01-24T09:50:22.829Z,35.60
2019-01-24T09:52:51.294Z,31.62
2019-01-24T09:55:19.859Z,32.37
2019-01-24T09:57:48.577Z,33.53
2019-01-24T10:00:25.455Z,37.17
2019-01-24T10:02:54.176Z,34.60
2019-01-24T10:05:22.741Z,46.17
2019-01-24T10:07:51.196Z,31.37
2019-01-24T10:10:21.659Z,35.97
2019-01-24T10:12:50.556Z,37.80
2019-01-24T10:15:20.220Z,30.93
2019-01-24T10:17:48.741Z,34.67
2019-01-24T10:20:20.082Z,35.00
2019-01-24T10:22:48.962Z,38.30
2019-01-24T10:25:20.228Z,35.67
2019-01-24T10:27:48.679Z,42.50
2019-01-24T10:30:20.290Z,33.40
2019-01-24T10:32:49.093Z,30.47
2019-01-24T10:35:18.229Z,39.47
2019-01-24T10:37:46.849Z,40.57
2019-01-24T10:40:21.237Z,35.73
2019-01-24T10:42:49.957Z,37.00
2019-01-24T10:45:20.335Z,41.30
2019-01-24T10:47:50.016Z,33.73
2019-01-24T10:50:20.406Z,37.53
2019-01-24T10:52:48.904Z,36.23
2019-01-24T10:55:19.603Z,34.70
2019-01-24T10:57:48.572Z,35.53
2019-01-24T11:00:28.745Z,34.57
2019-01-24T11:02:57.303Z,41.70
2019-01-24T11:05:25.819Z,42.30
2019-01-24T11:07:54.240Z,39.20
2019-01-24T11:10:22.838Z,33.10
2019-01-24T11:12:51.260Z,36.47
2019-01-24T11:15:22.693Z,39.23
2019-01-24T11:17:51.190Z,28.60
2019-01-24T11:20:20.478Z,34.40
2019-01-24T11:22:49.845Z,34.53
2019-01-24T11:25:20.918Z,37.20
2019-01-24T11:27:49.342Z,37.47
2019-01-24T11:30:31.159Z,33.90
2019-01-24T11:33:00.159Z,34.70
2019-01-24T11:35:33.947Z,36.60
2019-01-24T11:38:02.372Z,33.67
2019-01-24T11:40:31.015Z,33.18
2019-01-24T11:42:59.501Z,32.57
2019-01-24T11:45:33.619Z,33.17
2019-01-24T11:48:02.044Z,31.17
2019-01-24T11:50:30.573Z,34.93
2019-01-24T11:52:59.002Z,34.83
2019-01-24T11:55:27.450Z,34.63
2019-01-24T11:57:55.949Z,32.83
2019-01-24T12:00:28.418Z,26.37
2019-01-24T12:02:56.980Z,31.40
2019-01-24T12:05:25.606Z,31.97
2019-01-24T12:07:54.164Z,31.33
2019-01-24T12:10:27.315Z,30.63
2019-01-24T12:12:56.023Z,35.27
2019-01-24T12:15:31.531Z,28.00
2019-01-24T12:18:00.091Z,32.00
2019-01-24T12:20:29.165Z,29.80
2019-01-24T12:22:57.964Z,32.07
2019-01-24T12:25:26.406Z,28.95
2019-01-24T12:27:54.882Z,29.57
2019-01-24T12:30:28.342Z,28.40
2019-01-24T12:32:57.328Z,32.03
2019-01-24T12:35:26.036Z,28.13
2019-01-24T12:37:54.608Z,28.37
2019-01-24T12:40:23.040Z,28.90
2019-01-24T12:42:51.606Z,25.97
2019-01-24T12:45:26.464Z,26.52
2019-01-24T12:47:55.083Z,30.67
2019-01-24T12:50:23.955Z,24.47
2019-01-24T12:52:52.544Z,31.70
2019-01-24T12:55:21.315Z,26.43
2019-01-24T12:57:49.934Z,33.33
2019-01-24T13:00:21.540Z,34.70
2019-01-24T13:02:49.989Z,30.33
2019-01-24T13:05:18.591Z,26.12
2019-01-24T13:07:47.114Z,31.30
2019-01-24T13:10:18.181Z,28.10
2019-01-24T13:12:46.699Z,29.70
2019-01-24T13:15:18.406Z,26.80
2019-01-24T13:17:46.922Z,31.00
2019-01-24T13:20:16.708Z,27.40
2019-01-24T13:22:45.508Z,30.27
2019-01-24T13:25:25.841Z,26.15
2019-01-24T13:27:54.477Z,33.35
2019-01-24T13:30:28.469Z,34.57
2019-01-24T13:32:57.074Z,33.02
2019-01-24T13:35:25.762Z,26.57
2019-01-24T13:37:54.365Z,25.17
2019-01-24T13:40:25.241Z,29.57
2019-01-24T13:42:53.968Z,29.63
2019-01-24T13:45:25.037Z,27.20
2019-01-24T13:47:53.940Z,33.83
2019-01-24T13:50:22.519Z,26.90
2019-01-24T13:52:51.230Z,32.30
2019-01-24T13:55:20.096Z,28.40
2019-01-24T13:57:49.788Z,29.10
2019-01-24T14:00:27.258Z,27.50
2019-01-24T14:03:04.265Z,27.10
2019-01-24T14:05:32.834Z,28.80
2019-01-24T14:08:01.421Z,24.33
2019-01-24T14:10:29.989Z,31.13
2019-01-24T14:12:58.696Z,30.12
2019-01-24T14:15:27.264Z,27.40
2019-01-24T14:17:56.067Z,27.07
2019-01-24T14:20:24.948Z,28.35
2019-01-24T14:22:53.647Z,27.57
2019-01-24T14:25:22.425Z,24.00
2019-01-24T14:27:51.022Z,25.83
2019-01-24T14:30:22.460Z,28.52
2019-01-24T14:32:51.338Z,25.27
2019-01-24T14:35:20.139Z,27.17
2019-01-24T14:37:49.281Z,27.00
2019-01-24T14:40:17.985Z,23.15
2019-01-24T14:42:47.169Z,29.10
2019-01-24T14:45:27.316Z,25.00
2019-01-24T14:47:56.434Z,28.30
2019-01-24T14:50:30.124Z,28.23
2019-01-24T14:52:58.808Z,25.62
2019-01-24T14:55:27.415Z,31.73
2019-01-24T14:57:55.989Z,28.15
2019-01-24T15:00:30.076Z,22.95
2019-01-24T15:02:58.738Z,26.73
2019-01-24T15:05:27.534Z,25.87
2019-01-24T15:07:56.299Z,26.93
2019-01-24T15:10:25.713Z,25.00
2019-01-24T15:12:56.486Z,25.23
2019-01-24T15:15:25.390Z,27.98
2019-01-24T15:17:54.162Z,25.40
2019-01-24T15:20:22.983Z,25.92
2019-01-24T15:22:51.753Z,25.75
2019-01-24T15:25:22.643Z,24.97
2019-01-24T15:27:52.467Z,28.02
2019-01-24T15:30:26.483Z,29.47
2019-01-24T15:32:55.249Z,29.93
2019-01-24T15:35:25.791Z,23.60
2019-01-24T15:37:54.985Z,28.70
2019-01-24T15:40:32.578Z,27.40
2019-01-24T15:43:02.486Z,25.83
2019-01-24T15:45:31.944Z,24.57
2019-01-24T15:48:01.288Z,29.07
2019-01-24T15:50:30.687Z,24.57
2019-01-24T15:52:59.699Z,26.05
2019-01-24T15:55:29.223Z,25.25
2019-01-24T15:57:58.633Z,27.10
2019-01-24T16:00:32.432Z,23.87
2019-01-24T16:03:01.551Z,26.20
2019-01-24T16:05:30.971Z,25.32
2019-01-24T16:08:01.855Z,23.65
2019-01-24T16:10:31.265Z,26.12
2019-01-24T16:13:00.768Z,21.62
2019-01-24T16:15:32.334Z,28.12
2019-01-24T16:18:01.306Z,28.23
2019-01-24T16:20:31.004Z,26.10
2019-01-24T16:23:00.806Z,23.00
2019-01-24T16:25:32.582Z,23.60
2019-01-24T16:28:02.405Z,19.90
2019-01-24T16:30:33.366Z,23.05
2019-01-24T16:33:03.083Z,22.80
2019-01-24T16:35:32.912Z,26.05
2019-01-24T16:38:09.012Z,26.75
2019-01-24T16:40:34.014Z,31.42
2019-01-24T16:43:04.078Z,29.72
2019-01-24T16:45:33.875Z,27.20
2019-01-24T16:48:04.035Z,23.92
2019-01-24T16:50:33.638Z,22.30
2019-01-24T16:53:03.899Z,23.20
2019-01-24T16:55:34.021Z,24.27
2019-01-24T16:58:04.086Z,24.57
2019-01-24T17:00:39.129Z,26.27
2019-01-24T17:03:09.561Z,27.93
2019-01-24T17:05:39.483Z,22.87
2019-01-24T17:08:16.312Z,26.75
2019-01-24T17:10:41.183Z,25.82
2019-01-24T17:13:10.838Z,25.90
2019-01-24T17:15:42.150Z,22.42
2019-01-24T17:18:11.823Z,25.55
2019-01-24T17:20:41.742Z,27.22
2019-01-24T17:23:11.900Z,25.68
2019-01-24T17:25:41.592Z,29.07
2019-01-24T17:28:11.453Z,26.42
2019-01-24T17:30:41.365Z,26.90
2019-01-24T17:33:11.517Z,31.80
2019-01-24T17:35:41.426Z,23.07
2019-01-24T17:38:11.494Z,30.15
2019-01-24T17:40:41.760Z,28.60
2019-01-24T17:43:11.658Z,23.40
2019-01-24T17:45:41.575Z,28.10
2019-01-24T17:48:11.325Z,27.95
2019-01-24T17:50:41.223Z,27.53
2019-01-24T17:53:10.984Z,26.00
2019-01-24T17:55:42.817Z,26.77
2019-01-24T17:58:12.831Z,26.12
2019-01-24T18:00:44.424Z,26.30
2019-01-24T18:03:14.774Z,24.07
2019-01-24T18:05:44.820Z,29.17
2019-01-24T18:08:15.251Z,26.97
2019-01-24T18:10:45.528Z,28.50
2019-01-24T18:13:15.839Z,24.90
2019-01-24T18:15:46.001Z,29.37
2019-01-24T18:18:15.812Z,25.32
2019-01-24T18:20:46.078Z,25.65
2019-01-24T18:23:16.319Z,29.80
2019-01-24T18:25:46.545Z,29.30
2019-01-24T18:28:17.856Z,25.25
2019-01-24T18:30:48.557Z,26.77
2019-01-24T18:33:18.980Z,29.12
2019-01-24T18:35:49.274Z,26.02
2019-01-24T18:38:19.161Z,24.23
2019-01-24T18:40:49.315Z,25.62
2019-01-24T18:43:20.139Z,28.45
2019-01-24T18:45:54.598Z,28.87
2019-01-24T18:48:24.913Z,28.03
2019-01-24T18:50:55.279Z,29.23
2019-01-24T18:53:25.906Z,28.40
2019-01-24T18:55:56.072Z,28.10
2019-01-24T18:58:26.387Z,25.37
2019-01-24T19:00:56.748Z,30.17
2019-01-24T19:03:27.179Z,30.10
2019-01-24T19:05:57.237Z,25.77
2019-01-24T19:08:27.444Z,26.75
2019-01-24T19:10:57.812Z,22.65
2019-01-24T19:13:28.029Z,20.43
2019-01-24T19:15:58.695Z,21.65
2019-01-24T19:18:29.117Z,26.82
2019-01-24T19:20:59.597Z,26.77
2019-01-24T19:23:30.312Z,21.95
2019-01-24T19:26:00.889Z,21.75
2019-01-24T19:28:31.710Z,23.77
2019-01-24T19:31:01.980Z,27.42
2019-01-24T19:33:32.298Z,24.82
2019-01-24T19:36:02.865Z,24.85
2019-01-24T19:38:33.693Z,24.60
2019-01-24T19:41:04.466Z,20.95
2019-01-24T19:43:35.502Z,21.20
2019-01-24T19:46:05.971Z,25.55
2019-01-24T19:48:36.694Z,25.75
2019-01-24T19:51:07.584Z,25.73
2019-01-24T19:53:38.036Z,21.30
2019-01-24T19:56:08.771Z,28.92
2019-01-24T19:58:39.089Z,25.37
2019-01-24T20:01:09.264Z,25.70
2019-01-24T20:03:40.076Z,25.05
2019-01-24T20:06:10.445Z,22.02
2019-01-24T20:08:41.078Z,23.55
2019-01-24T20:11:11.810Z,23.50
2019-01-24T20:13:42.900Z,22.98
2019-01-24T20:16:13.345Z,22.93
2019-01-24T20:18:43.865Z,25.70
2019-01-24T20:21:14.034Z,23.65
2019-01-24T20:23:44.448Z,17.97
2019-01-24T20:26:14.718Z,25.00
2019-01-24T20:28:45.130Z,20.32
2019-01-24T20:31:15.604Z,21.48
2019-01-24T20:33:46.023Z,22.50
2019-01-24T20:36:16.394Z,27.27
2019-01-24T20:38:46.809Z,27.07
2019-01-24T20:41:16.958Z,23.75
2019-01-24T20:43:46.885Z,24.52
2019-01-24T20:46:16.941Z,19.77
2019-01-24T20:48:47.060Z,22.47
2019-01-24T20:51:17.013Z,23.25
2019-01-24T20:53:47.326Z,23.80
2019-01-24T20:56:17.197Z,27.13
2019-01-24T20:58:46.383Z,25.88
2019-01-24T21:01:15.831Z,23.47
2019-01-24T21:03:46.756Z,24.25
2019-01-24T21:06:16.917Z,25.17
2019-01-24T21:08:46.888Z,21.97
2019-01-24T21:11:16.958Z,25.25
2019-01-24T21:13:47.014Z,25.17
2019-01-24T21:16:17.070Z,26.57
2019-01-24T21:18:47.370Z,24.35
2019-01-24T21:21:17.300Z,24.40
2019-01-24T21:23:47.161Z,25.35
2019-01-24T21:26:16.791Z,26.83
2019-01-24T21:28:46.619Z,30.50
2019-01-24T21:31:16.317Z,28.60
2019-01-24T21:33:45.871Z,26.25
2019-01-24T21:36:15.365Z,27.02
2019-01-24T21:38:44.201Z,27.30
2019-01-24T21:41:13.001Z,30.43
2019-01-24T21:43:41.697Z,26.30
2019-01-24T21:46:10.788Z,24.70
2019-01-24T21:48:40.067Z,27.93
2019-01-24T21:51:11.289Z,25.82
2019-01-24T21:53:40.526Z,27.27
2019-01-24T21:56:10.025Z,24.92
2019-01-24T21:58:39.775Z,26.90
2019-01-24T22:01:09.414Z,25.80
2019-01-24T22:03:38.931Z,24.52
2019-01-24T22:06:08.432Z,27.00
2019-01-24T22:08:38.608Z,24.00
2019-01-24T22:11:07.374Z,29.37
2019-01-24T22:13:36.276Z,27.13
2019-01-24T22:16:05.162Z,28.83
2019-01-24T22:18:33.807Z,30.20
2019-01-24T22:21:02.413Z,31.95
2019-01-24T22:23:31.010Z,23.37
2019-01-24T22:25:59.591Z,24.45
2019-01-24T22:28:28.182Z,27.43
2019-01-24T22:30:57.588Z,26.65
2019-01-24T22:33:26.186Z,22.20
2019-01-24T22:35:54.626Z,27.42
2019-01-24T22:38:23.090Z,27.67
2019-01-24T22:40:51.656Z,23.15
2019-01-24T22:43:20.110Z,25.60
2019-01-24T22:45:48.546Z,28.40
2019-01-24T22:48:17.012Z,31.20
2019-01-24T22:50:45.449Z,28.80
2019-01-24T22:53:13.911Z,27.82
2019-01-24T22:55:42.348Z,30.50
2019-01-24T22:58:10.813Z,32.40
2019-01-24T23:00:46.674Z,32.78
2019-01-24T23:03:17.483Z,32.28
2019-01-24T23:05:45.990Z,37.48
2019-01-24T23:08:14.453Z,40.12
2019-01-24T23:10:42.957Z,36.48
2019-01-24T23:13:11.420Z,36.73
2019-01-24T23:15:39.925Z,35.90
2019-01-24T23:18:08.386Z,46.53
2019-01-24T23:20:36.903Z,44.93
2019-01-24T23:23:05.505Z,43.35
2019-01-24T23:25:34.037Z,39.73
2019-01-24T23:28:02.470Z,44.67
2019-01-24T23:30:30.932Z,45.48
2019-01-24T23:32:59.439Z,45.25
2019-01-24T23:35:27.963Z,41.58
2019-01-24T23:37:56.397Z,45.17
2019-01-24T23:40:24.859Z,46.02
2019-01-24T23:42:53.293Z,42.95
2019-01-24T23:45:21.759Z,39.95
2019-01-24T23:47:50.180Z,43.50
2019-01-24T23:50:18.649Z,45.45
2019-01-24T23:52:47.148Z,43.17
2019-01-24T23:55:15.684Z,42.93
2019-01-24T23:57:44.197Z,44.95
